CYZS

Details ICAO CYZS
Name CORAL HARBOUR
Region Canada
Timezone America/Coral_Harbour (UTC-5.0)
Plans Departing 12
Arriving 17
Stats Elevation 210 ft / 64 m (AMSL)
Location 64.193333° -83.359446°
Runways 1
Magnetic Variation 18.719° W
Sunrise 2018-05-22 07:56:59 UTC / 2018-05-22 02:56:59 Local
Sunset 2018-05-23 03:06:07 UTC / 2018-05-22 22:06:07 Local
Advertisement - Login to hide

Runways

ID Width Length Bearing (true) Bearing (mag) Surface Threshold Offset Overrun Length
16T 100 ft / 30 m 4,987 ft / 1,520 m 155.02° 173.74° Gravel 0 ft / 0 m 0 ft / 0 m
34T 100 ft / 30 m 4,987 ft / 1,520 m 335.03° 353.75° Gravel 0 ft / 0 m 0 ft / 0 m

Map

Weather


0- 5 10 15 20 25 30 35+ Temperature / ° C

Clouds and Precipitation
Forecast for 2018-05-22 18:00 UTC. Updated 5 hours ago

Ground ~20,000 ft ~40,000 ft Winds

METAR

CYZS 222131Z 31017G28KT 15SM -SN FEW015 BKN038 M05/M09 A3006 RMK SC1SC7 SC TR SLP188

TAF

TAF CYZS 221838Z 2219/2307 32012G22KT P6SM FEW015 SCT030 TEMPO 2219/2307 P6SM -SN BKN015 BKN030 BECMG 2223/2301 32010KT RMK NXT FCST BY 230100Z

Frequencies

Unicom 122.10 MHz MANDATORY FREQ
Tower 133.70 MHz EDMONTON CENTRE
Warning: Do not use this data for real-world aviation or navigation. No guarantee of current accuracy is given.